createdAt,value
2019-01-25T00:00:52.135Z,-5.72
2019-01-25T00:01:52.167Z,-5.76
2019-01-25T00:02:52.099Z,-5.68
2019-01-25T00:03:52.152Z,-5.69
2019-01-25T00:04:52.266Z,-5.76
2019-01-25T00:05:52.221Z,-5.86
2019-01-25T00:06:52.097Z,-5.82
2019-01-25T00:07:52.146Z,-5.98
2019-01-25T00:08:52.164Z,-5.97
2019-01-25T00:09:59.109Z,-5.94
2019-01-25T00:10:52.062Z,-6.01
2019-01-25T00:11:52.082Z,-5.93
2019-01-25T00:12:52.093Z,-5.9
2019-01-25T00:13:52.330Z,-5.87
2019-01-25T00:14:52.066Z,-6.03
2019-01-25T00:15:52.030Z,-6.07
2019-01-25T00:16:52.018Z,-6.08
2019-01-25T00:17:52.051Z,-6.07
2019-01-25T00:18:52.036Z,-6.03
2019-01-25T00:19:51.732Z,-6.06
2019-01-25T00:20:51.993Z,-6.11
2019-01-25T00:21:52.124Z,-6.05
2019-01-25T00:22:52.027Z,-6.14
2019-01-25T00:23:52.295Z,-6.21
2019-01-25T00:24:52.312Z,-6.13
2019-01-25T00:25:52.311Z,-6.08
2019-01-25T00:26:52.157Z,-6.06
2019-01-25T00:27:51.933Z,-6.01
2019-01-25T00:28:52.449Z,-6.06
2019-01-25T00:29:52.163Z,-6
2019-01-25T00:30:52.232Z,-6.01
2019-01-25T00:31:52.017Z,-5.97
2019-01-25T00:32:52.261Z,-5.9
2019-01-25T00:33:52.104Z,-6.03
2019-01-25T00:34:52.160Z,-6.09
2019-01-25T00:35:52.144Z,-6.02
2019-01-25T00:36:52.537Z,-6.01
2019-01-25T00:37:51.944Z,-6.15
2019-01-25T00:38:52.298Z,-6.1
2019-01-25T00:39:52.149Z,-5.99
2019-01-25T00:40:52.218Z,-5.96
2019-01-25T00:41:51.998Z,-5.96
2019-01-25T00:42:52.356Z,-5.95
2019-01-25T00:43:53.735Z,-5.87
2019-01-25T00:44:52.264Z,-5.86
2019-01-25T00:45:52.234Z,-5.82
2019-01-25T00:46:52.251Z,-5.78
2019-01-25T00:47:52.012Z,-5.81
2019-01-25T00:48:51.927Z,-5.93
2019-01-25T00:49:52.315Z,-5.95
2019-01-25T00:50:52.023Z,-6
2019-01-25T00:51:52.222Z,-5.92
2019-01-25T00:52:52.221Z,-5.93
2019-01-25T00:53:52.228Z,-5.84
2019-01-25T00:54:51.967Z,-5.85
2019-01-25T00:55:52.334Z,-5.81
2019-01-25T00:56:52.089Z,-5.85
2019-01-25T00:57:52.069Z,-5.84
2019-01-25T00:58:52.406Z,-5.82
2019-01-25T00:59:52.149Z,-5.82
2019-01-25T01:00:52.011Z,-5.8
2019-01-25T01:01:52.274Z,-5.79
2019-01-25T01:02:51.891Z,-5.8
2019-01-25T01:03:53.732Z,-5.77
2019-01-25T01:04:52.182Z,-5.76
2019-01-25T01:05:52.188Z,-5.72
2019-01-25T01:06:52.087Z,-5.71
2019-01-25T01:07:51.858Z,-5.75
2019-01-25T01:08:51.905Z,-5.72
2019-01-25T01:09:52.303Z,-5.69
2019-01-25T01:10:51.890Z,-5.67
2019-01-25T01:11:51.919Z,-5.56
2019-01-25T01:12:52.016Z,-5.54
2019-01-25T01:13:51.872Z,-5.49
2019-01-25T01:14:52.097Z,-5.51
2019-01-25T01:15:51.965Z,-5.48
2019-01-25T01:16:52.210Z,-5.45
2019-01-25T01:17:52.179Z,-5.48
2019-01-25T01:18:52.165Z,-5.48
2019-01-25T01:19:51.967Z,-5.48
2019-01-25T01:20:53.186Z,-5.53
2019-01-25T01:21:52.298Z,-5.57
2019-01-25T01:22:51.851Z,-5.56
2019-01-25T01:23:53.704Z,-5.54
2019-01-25T01:24:52.361Z,-5.66
2019-01-25T01:25:51.976Z,-5.72
2019-01-25T01:26:52.166Z,-5.77
2019-01-25T01:27:51.835Z,-5.7
2019-01-25T01:28:52.040Z,-5.7
2019-01-25T01:29:52.764Z,-5.71
2019-01-25T01:30:52.079Z,-5.74
2019-01-25T01:31:52.986Z,-5.84
2019-01-25T01:32:53.211Z,-5.91
2019-01-25T01:33:52.263Z,-5.84
2019-01-25T01:34:52.425Z,-5.8
2019-01-25T01:35:52.049Z,-5.8
2019-01-25T01:36:52.248Z,-5.8
2019-01-25T01:37:52.010Z,-5.85
2019-01-25T01:38:51.890Z,-5.87
2019-01-25T01:39:51.910Z,-5.88
2019-01-25T01:40:52.230Z,-5.91
2019-01-25T01:41:52.136Z,-6.05
2019-01-25T01:42:52.053Z,-6.09
2019-01-25T01:43:52.027Z,-6.09
2019-01-25T01:44:51.855Z,-6.12
2019-01-25T01:45:51.813Z,-6.15
2019-01-25T01:46:52.137Z,-6.03
2019-01-25T01:47:52.183Z,-6.07
2019-01-25T01:48:51.847Z,-6.08
2019-01-25T01:49:51.800Z,-6.09
2019-01-25T01:50:52.282Z,-6.06
2019-01-25T01:51:52.237Z,-6.03
2019-01-25T01:52:51.804Z,-6.04
2019-01-25T01:53:51.884Z,-5.98
2019-01-25T01:54:51.823Z,-6.14
2019-01-25T01:55:52.131Z,-6.17
2019-01-25T01:56:52.182Z,-6.08
2019-01-25T01:57:52.120Z,-6.11
2019-01-25T01:58:51.822Z,-6.09
2019-01-25T01:59:51.875Z,-6.1
2019-01-25T02:00:51.963Z,-6.05
2019-01-25T02:01:51.991Z,-6.06
2019-01-25T02:02:51.774Z,-6.07
2019-01-25T02:03:51.802Z,-6.13
2019-01-25T02:04:51.796Z,-6.12
2019-01-25T02:05:51.828Z,-6.12
2019-01-25T02:06:52.143Z,-6.11
2019-01-25T02:07:51.826Z,-6.13
2019-01-25T02:08:51.966Z,-6.12
2019-01-25T02:09:51.881Z,-6.13
2019-01-25T02:10:51.844Z,-6.18
2019-01-25T02:11:51.758Z,-6.22
2019-01-25T02:12:51.814Z,-6.22
2019-01-25T02:13:51.794Z,-6.17
2019-01-25T02:14:51.852Z,-6.23
2019-01-25T02:15:52.237Z,-6.27
2019-01-25T02:16:51.815Z,-6.28
2019-01-25T02:17:51.817Z,-6.24
2019-01-25T02:18:51.798Z,-6.26
2019-01-25T02:19:51.786Z,-6.24
2019-01-25T02:20:51.825Z,-6.26
2019-01-25T02:21:53.366Z,-6.29
2019-01-25T02:22:51.747Z,-6.28
2019-01-25T02:23:51.832Z,-6.36
2019-01-25T02:24:51.854Z,-6.34
2019-01-25T02:25:51.902Z,-6.29
2019-01-25T02:26:51.750Z,-6.27
2019-01-25T02:27:51.787Z,-6.24
2019-01-25T02:28:52.144Z,-6.27
2019-01-25T02:29:51.928Z,-6.25
2019-01-25T02:30:51.954Z,-6.23
2019-01-25T02:31:52.202Z,-6.21
2019-01-25T02:32:52.003Z,-6.22
2019-01-25T02:33:51.759Z,-6.37
2019-01-25T02:34:51.975Z,-6.41
2019-01-25T02:35:52.193Z,-6.41
2019-01-25T02:36:52.028Z,-6.42
2019-01-25T02:37:51.764Z,-6.39
2019-01-25T02:38:51.847Z,-6.33
2019-01-25T02:39:51.790Z,-6.33
2019-01-25T02:40:52.320Z,-6.28
2019-01-25T02:41:52.122Z,-6.29
2019-01-25T02:42:51.861Z,-6.29
2019-01-25T02:43:51.955Z,-6.28
2019-01-25T02:44:51.763Z,-6.26
2019-01-25T02:45:51.970Z,-6.28
2019-01-25T02:46:51.731Z,-6.27
2019-01-25T02:47:51.752Z,-6.26
2019-01-25T02:48:51.841Z,-6.36
2019-01-25T02:49:52.067Z,-6.38
2019-01-25T02:50:51.978Z,-6.37
2019-01-25T02:51:52.014Z,-6.36
2019-01-25T02:52:51.978Z,-6.35
2019-01-25T02:53:52.625Z,-6.37
2019-01-25T02:54:51.890Z,-6.34
2019-01-25T02:55:51.776Z,-6.31
2019-01-25T02:56:51.872Z,-6.36
2019-01-25T02:57:51.723Z,-6.35
2019-01-25T02:58:51.775Z,-6.41
2019-01-25T02:59:51.763Z,-6.38
2019-01-25T03:00:51.931Z,-6.38
2019-01-25T03:01:51.749Z,-6.35
2019-01-25T03:02:51.830Z,-6.37
2019-01-25T03:03:51.899Z,-6.37
2019-01-25T03:04:51.873Z,-6.37
2019-01-25T03:05:52.043Z,-6.38
2019-01-25T03:06:52.205Z,-6.36
2019-01-25T03:07:51.800Z,-6.35
2019-01-25T03:08:52.374Z,-6.35
2019-01-25T03:09:52.235Z,-6.32
2019-01-25T03:10:51.807Z,-6.35
2019-01-25T03:11:51.774Z,-6.35
2019-01-25T03:12:51.903Z,-6.34
2019-01-25T03:13:51.795Z,-6.34
2019-01-25T03:14:51.727Z,-6.36
2019-01-25T03:15:51.715Z,-6.39
2019-01-25T03:16:51.773Z,-6.42
2019-01-25T03:17:51.818Z,-6.39
2019-01-25T03:18:51.794Z,-6.41
2019-01-25T03:19:51.806Z,-6.42
2019-01-25T03:20:51.662Z,-6.4
2019-01-25T03:21:51.765Z,-6.41
2019-01-25T03:22:52.016Z,-6.39
2019-01-25T03:23:51.695Z,-6.39
2019-01-25T03:24:51.808Z,-6.42
2019-01-25T03:25:51.941Z,-6.4
2019-01-25T03:26:51.801Z,-6.42
2019-01-25T03:27:52.134Z,-6.39
2019-01-25T03:28:51.998Z,-6.44
2019-01-25T03:29:52.063Z,-6.43
2019-01-25T03:30:51.890Z,-6.45
2019-01-25T03:31:51.743Z,-6.46
2019-01-25T03:32:51.884Z,-6.43
2019-01-25T03:33:52.347Z,-6.44
2019-01-25T03:34:51.662Z,-6.43
2019-01-25T03:35:51.776Z,-6.44
2019-01-25T03:36:51.737Z,-6.44
2019-01-25T03:37:51.728Z,-6.43
2019-01-25T03:38:51.685Z,-6.46
2019-01-25T03:39:51.811Z,-6.5
2019-01-25T03:40:55.749Z,-6.47
2019-01-25T03:41:53.341Z,-6.43
2019-01-25T03:42:52.165Z,-6.41
2019-01-25T03:43:51.721Z,-6.44
2019-01-25T03:44:51.755Z,-6.4
2019-01-25T03:45:51.970Z,-6.42
2019-01-25T03:46:51.847Z,-6.41
2019-01-25T03:47:51.680Z,-6.42
2019-01-25T03:48:51.891Z,-6.42
2019-01-25T03:49:51.738Z,-6.42
2019-01-25T03:50:51.723Z,-6.4
2019-01-25T03:51:51.808Z,-6.45
2019-01-25T03:52:51.646Z,-6.44
2019-01-25T03:53:51.610Z,-6.39
2019-01-25T03:54:51.894Z,-6.44
2019-01-25T03:55:51.656Z,-6.44
2019-01-25T03:56:51.665Z,-6.44
2019-01-25T03:57:51.642Z,-6.41
2019-01-25T03:58:51.802Z,-6.42
2019-01-25T03:59:51.625Z,-6.41
2019-01-25T04:00:51.737Z,-6.39
2019-01-25T04:01:51.694Z,-6.4
2019-01-25T04:02:51.627Z,-6.42
2019-01-25T04:03:51.614Z,-6.42
2019-01-25T04:04:51.685Z,-6.39
2019-01-25T04:05:51.631Z,-6.38
2019-01-25T04:06:51.787Z,-6.36
2019-01-25T04:07:51.669Z,-6.39
2019-01-25T04:08:51.809Z,-6.35
2019-01-25T04:09:51.708Z,-6.35
2019-01-25T04:10:51.734Z,-6.33
2019-01-25T04:11:51.713Z,-6.33
2019-01-25T04:12:51.729Z,-6.34
2019-01-25T04:13:51.890Z,-6.34
2019-01-25T04:14:51.704Z,-6.33
2019-01-25T04:15:52.007Z,-6.32
2019-01-25T04:16:51.667Z,-6.33
2019-01-25T04:17:51.607Z,-6.33
2019-01-25T04:18:52.914Z,-6.33
2019-01-25T04:19:51.738Z,-6.33
2019-01-25T04:20:51.578Z,-6.28
2019-01-25T04:21:51.765Z,-6.32
2019-01-25T04:22:51.907Z,-6.28
2019-01-25T04:23:51.570Z,-6.27
2019-01-25T04:24:51.555Z,-6.29
2019-01-25T04:25:51.539Z,-6.29
2019-01-25T04:26:51.621Z,-6.28
2019-01-25T04:27:51.601Z,-6.29
2019-01-25T04:28:51.872Z,-6.28
2019-01-25T04:29:51.666Z,-6.28
2019-01-25T04:30:51.880Z,-6.27
2019-01-25T04:31:51.755Z,-6.26
2019-01-25T04:32:51.817Z,-6.27
2019-01-25T04:33:51.794Z,-6.23
2019-01-25T04:34:51.546Z,-6.23
2019-01-25T04:35:51.625Z,-6.24
2019-01-25T04:36:51.816Z,-6.21
2019-01-25T04:37:51.827Z,-6.18
2019-01-25T04:38:51.703Z,-6.22
2019-01-25T04:39:51.737Z,-6.19
2019-01-25T04:40:51.898Z,-6.18
2019-01-25T04:41:51.666Z,-6.16
2019-01-25T04:42:51.865Z,-6.11
2019-01-25T04:43:51.648Z,-6.1
2019-01-25T04:44:51.597Z,-6.08
2019-01-25T04:45:51.744Z,-6.1
2019-01-25T04:46:52.297Z,-6.04
2019-01-25T04:47:51.599Z,-6.04
2019-01-25T04:48:51.529Z,-6.05
2019-01-25T04:50:01.243Z,-6.04
2019-01-25T04:50:51.630Z,-6.02
2019-01-25T04:51:51.695Z,-6.01
2019-01-25T04:52:52.855Z,-6
2019-01-25T04:53:51.758Z,-6.01
2019-01-25T04:54:51.851Z,-5.98
2019-01-25T04:55:51.665Z,-6.01
2019-01-25T04:56:51.671Z,-6.02
2019-01-25T04:57:51.838Z,-6.05
2019-01-25T04:58:51.545Z,-5.95
2019-01-25T04:59:51.580Z,-5.91
2019-01-25T05:00:51.571Z,-5.87
2019-01-25T05:01:52.422Z,-5.88
2019-01-25T05:02:51.549Z,-5.85
2019-01-25T05:03:51.733Z,-5.85
2019-01-25T05:04:51.614Z,-5.79
2019-01-25T05:05:51.798Z,-5.78
2019-01-25T05:06:51.822Z,-5.75
2019-01-25T05:07:53.464Z,-5.77
2019-01-25T05:08:51.704Z,-5.84
2019-01-25T05:09:51.518Z,-5.78
2019-01-25T05:10:52.208Z,-5.67
2019-01-25T05:11:51.532Z,-5.71
2019-01-25T05:12:53.382Z,-5.76
2019-01-25T05:13:51.658Z,-5.75
2019-01-25T05:14:51.624Z,-5.75
2019-01-25T05:15:51.776Z,-5.72
2019-01-25T05:16:51.792Z,-5.59
2019-01-25T05:17:51.797Z,-5.64
2019-01-25T05:18:51.531Z,-5.65
2019-01-25T05:19:51.587Z,-5.63
2019-01-25T05:20:51.624Z,-5.62
2019-01-25T05:21:51.593Z,-5.66
2019-01-25T05:22:51.694Z,-5.57
2019-01-25T05:23:51.901Z,-5.56
2019-01-25T05:24:51.626Z,-5.55
2019-01-25T05:25:51.756Z,-5.57
2019-01-25T05:26:51.824Z,-5.51
2019-01-25T05:27:51.489Z,-5.53
2019-01-25T05:28:51.779Z,-5.5
2019-01-25T05:29:51.518Z,-5.47
2019-01-25T05:30:52.367Z,-5.44
2019-01-25T05:31:51.582Z,-5.45
2019-01-25T05:32:51.882Z,-5.45
2019-01-25T05:33:51.489Z,-5.47
2019-01-25T05:34:51.712Z,-5.45
2019-01-25T05:35:51.650Z,-5.38
2019-01-25T05:36:51.514Z,-5.39
2019-01-25T05:37:51.807Z,-5.4
2019-01-25T05:38:51.827Z,-5.38
2019-01-25T05:39:51.580Z,-5.41
2019-01-25T05:40:51.706Z,-5.4
2019-01-25T05:41:53.819Z,-5.39
2019-01-25T05:42:53.810Z,-5.41
2019-01-25T05:43:53.301Z,-5.38
2019-01-25T05:44:52.682Z,-5.37
2019-01-25T05:45:56.083Z,-5.31
2019-01-25T05:46:51.615Z,-5.3
2019-01-25T05:47:51.512Z,-5.28
2019-01-25T05:48:51.841Z,-5.31
2019-01-25T05:49:51.496Z,-5.3
2019-01-25T05:50:51.512Z,-5.27
2019-01-25T05:51:51.554Z,-5.27
2019-01-25T05:52:51.570Z,-5.31
2019-01-25T05:53:52.454Z,-5.3
2019-01-25T05:54:51.506Z,-5.25
2019-01-25T05:55:51.741Z,-5.25
2019-01-25T05:56:51.485Z,-5.26
2019-01-25T05:57:51.683Z,-5.26
2019-01-25T05:58:51.493Z,-5.26
2019-01-25T05:59:51.486Z,-5.21
2019-01-25T06:00:51.576Z,-5.26
2019-01-25T06:01:51.554Z,-5.26
2019-01-25T06:02:51.482Z,-5.23
2019-01-25T06:03:51.467Z,-5.18
2019-01-25T06:04:51.476Z,-5.19
2019-01-25T06:05:51.950Z,-5.17
2019-01-25T06:06:51.388Z,-5.14
2019-01-25T06:07:51.426Z,-5.17
2019-01-25T06:08:51.653Z,-5.1
2019-01-25T06:09:51.820Z,-5.06
2019-01-25T06:10:51.620Z,-5.05
2019-01-25T06:11:51.628Z,-5.01
2019-01-25T06:12:51.637Z,-4.96
2019-01-25T06:13:51.646Z,-4.93
2019-01-25T06:14:51.574Z,-4.94
2019-01-25T06:15:51.917Z,-4.92
2019-01-25T06:16:51.830Z,-4.96
2019-01-25T06:17:51.570Z,-4.92
2019-01-25T06:18:52.429Z,-4.95
2019-01-25T06:19:51.502Z,-4.94
2019-01-25T06:20:51.851Z,-4.99
2019-01-25T06:21:51.596Z,-4.97
2019-01-25T06:22:51.532Z,-4.93
2019-01-25T06:23:51.756Z,-4.9
2019-01-25T06:24:51.449Z,-4.89
2019-01-25T06:25:51.521Z,-4.84
2019-01-25T06:26:51.476Z,-4.83
2019-01-25T06:27:52.012Z,-4.9
2019-01-25T06:28:51.644Z,-4.88
2019-01-25T06:29:51.657Z,-4.83
2019-01-25T06:30:52.462Z,-4.84
2019-01-25T06:31:51.640Z,-4.84
2019-01-25T06:32:51.607Z,-4.8
2019-01-25T06:33:51.600Z,-4.8
2019-01-25T06:34:51.442Z,-4.73
2019-01-25T06:35:51.592Z,-4.83
2019-01-25T06:36:51.731Z,-4.74
2019-01-25T06:37:51.412Z,-4.71
2019-01-25T06:38:51.368Z,-4.75
2019-01-25T06:39:51.448Z,-4.76
2019-01-25T06:40:51.458Z,-4.79
2019-01-25T06:41:52.048Z,-4.78
2019-01-25T06:42:51.565Z,-4.79
2019-01-25T06:43:51.795Z,-4.74
2019-01-25T06:44:51.420Z,-4.73
2019-01-25T06:45:51.357Z,-4.7
2019-01-25T06:46:52.348Z,-4.72
2019-01-25T06:47:51.982Z,-4.59
2019-01-25T06:48:51.505Z,-4.6
2019-01-25T06:49:51.490Z,-4.69
2019-01-25T06:50:51.838Z,-4.74
2019-01-25T06:51:51.747Z,-4.71
2019-01-25T06:52:51.503Z,-4.72
2019-01-25T06:53:51.637Z,-4.72
2019-01-25T06:54:51.330Z,-4.69
2019-01-25T06:55:51.448Z,-4.67
2019-01-25T06:56:51.378Z,-4.66
2019-01-25T06:57:51.564Z,-4.68
2019-01-25T06:58:51.804Z,-4.67
2019-01-25T06:59:51.422Z,-4.65
2019-01-25T07:00:51.718Z,-4.7
2019-01-25T07:01:51.924Z,-4.65
2019-01-25T07:02:51.645Z,-4.66
2019-01-25T07:03:51.407Z,-4.64
2019-01-25T07:04:52.920Z,-4.6
2019-01-25T07:05:51.698Z,-4.59
2019-01-25T07:06:51.395Z,-4.58
2019-01-25T07:07:51.816Z,-4.64
2019-01-25T07:08:53.217Z,-4.62
2019-01-25T07:09:51.832Z,-4.66
2019-01-25T07:10:51.416Z,-4.62
2019-01-25T07:11:52.267Z,-4.67
2019-01-25T07:12:51.349Z,-4.68
2019-01-25T07:13:51.584Z,-4.68
2019-01-25T07:14:51.327Z,-4.64
2019-01-25T07:15:51.891Z,-4.6
2019-01-25T07:16:51.416Z,-4.57
2019-01-25T07:17:51.217Z,-4.55
2019-01-25T07:18:51.503Z,-4.55
2019-01-25T07:19:51.599Z,-4.53
2019-01-25T07:20:51.414Z,-4.54
2019-01-25T07:21:51.349Z,-4.62
2019-01-25T07:22:51.644Z,-4.58
2019-01-25T07:23:51.356Z,-4.57
2019-01-25T07:24:57.603Z,-4.52
2019-01-25T07:25:51.358Z,-4.55
2019-01-25T07:26:51.279Z,-4.49
2019-01-25T07:27:51.773Z,-4.48
2019-01-25T07:28:51.444Z,-4.42
2019-01-25T07:29:51.362Z,-4.48
2019-01-25T07:30:51.398Z,-4.54
2019-01-25T07:31:51.455Z,-4.52
2019-01-25T07:32:51.402Z,-4.51
2019-01-25T07:33:51.440Z,-4.51
2019-01-25T07:34:51.471Z,-4.51
2019-01-25T07:35:52.061Z,-4.55
2019-01-25T07:36:52.404Z,-4.5
2019-01-25T07:37:51.401Z,-4.43
2019-01-25T07:38:51.305Z,-4.43
2019-01-25T07:39:51.381Z,-4.45
2019-01-25T07:40:51.431Z,-4.43
2019-01-25T07:42:02.597Z,-4.44
2019-01-25T07:42:51.423Z,-4.46
2019-01-25T07:43:51.362Z,-4.38
2019-01-25T07:44:52.133Z,-4.4
2019-01-25T07:45:51.401Z,-4.46
2019-01-25T07:46:51.350Z,-4.48
2019-01-25T07:47:51.447Z,-4.45
2019-01-25T07:48:51.370Z,-4.44
2019-01-25T07:49:51.422Z,-4.44
2019-01-25T07:50:51.277Z,-4.43
2019-01-25T07:51:53.115Z,-4.4
2019-01-25T07:52:51.556Z,-4.43
2019-01-25T07:53:52.009Z,-4.39
2019-01-25T07:54:51.754Z,-4.36
2019-01-25T07:55:51.269Z,-4.33
2019-01-25T07:56:51.528Z,-4.25
2019-01-25T07:57:51.624Z,-4.25
2019-01-25T07:58:51.585Z,-4.31
2019-01-25T07:59:51.494Z,-4.34
2019-01-25T08:00:51.634Z,-4.34
2019-01-25T08:01:51.378Z,-4.32
2019-01-25T08:02:51.395Z,-4.26
2019-01-25T08:03:53.320Z,-4.24
2019-01-25T08:04:52.105Z,-4.31
2019-01-25T08:05:51.426Z,-4.34
2019-01-25T08:06:51.353Z,-4.32
2019-01-25T08:07:51.430Z,-4.32
2019-01-25T08:08:51.660Z,-4.29
2019-01-25T08:09:52.406Z,-4.31
2019-01-25T08:10:51.606Z,-4.26
2019-01-25T08:11:51.499Z,-4.25
2019-01-25T08:12:51.327Z,-4.29
2019-01-25T08:13:51.334Z,-4.23
2019-01-25T08:14:51.725Z,-4.28
2019-01-25T08:15:52.423Z,-4.25
2019-01-25T08:16:54.307Z,-4.24
2019-01-25T08:17:51.553Z,-4.26
2019-01-25T08:18:52.165Z,-4.26
2019-01-25T08:19:51.597Z,-4.22
2019-01-25T08:20:51.314Z,-4.22
2019-01-25T08:21:51.333Z,-4.16
2019-01-25T08:22:51.803Z,-4.19
2019-01-25T08:23:51.289Z,-4.16
2019-01-25T08:24:52.155Z,-4.15
2019-01-25T08:25:51.924Z,-4.14
2019-01-25T08:26:51.718Z,-4.16
2019-01-25T08:27:51.570Z,-4.14
2019-01-25T08:28:51.496Z,-4.15
2019-01-25T08:29:51.360Z,-4.15
2019-01-25T08:30:51.907Z,-4.16
2019-01-25T08:31:52.310Z,-4.2
2019-01-25T08:32:52.199Z,-4.19
2019-01-25T08:33:52.108Z,-4.2
2019-01-25T08:34:51.313Z,-4.15
2019-01-25T08:35:51.473Z,-4.07
2019-01-25T08:36:51.395Z,-4.05
2019-01-25T08:37:51.488Z,-4.06
2019-01-25T08:38:51.607Z,-4.1
2019-01-25T08:39:51.292Z,-4.05
2019-01-25T08:40:51.194Z,-4.02
2019-01-25T08:41:51.615Z,-4.06
2019-01-25T08:42:51.584Z,-4.06
2019-01-25T08:43:51.485Z,-4.07
2019-01-25T08:44:51.308Z,-4.04
2019-01-25T08:45:51.466Z,-3.96
2019-01-25T08:46:51.377Z,-4
2019-01-25T08:47:51.615Z,-3.98
2019-01-25T08:48:51.308Z,-3.95
2019-01-25T08:49:58.483Z,-3.92
2019-01-25T08:50:51.912Z,-3.94
2019-01-25T08:51:51.408Z,-3.94
2019-01-25T08:52:51.656Z,-3.98
2019-01-25T08:53:51.250Z,-3.97
2019-01-25T08:54:51.317Z,-3.97
2019-01-25T08:55:51.416Z,-3.97
2019-01-25T08:56:51.474Z,-3.91
2019-01-25T08:57:51.521Z,-3.92
2019-01-25T08:58:51.332Z,-3.93
2019-01-25T08:59:51.383Z,-4
2019-01-25T09:00:52.217Z,-3.95
2019-01-25T09:01:51.702Z,-3.93
2019-01-25T09:02:51.135Z,-3.9
2019-01-25T09:03:51.239Z,-3.89
2019-01-25T09:04:51.323Z,-3.86
2019-01-25T09:05:51.300Z,-3.82
2019-01-25T09:06:51.349Z,-3.78
2019-01-25T09:07:51.453Z,-3.8
2019-01-25T09:08:51.555Z,-3.79
2019-01-25T09:09:51.533Z,-3.82
2019-01-25T09:10:51.435Z,-3.82
2019-01-25T09:11:51.160Z,-3.89
2019-01-25T09:12:51.286Z,-3.84
2019-01-25T09:13:51.341Z,-3.84
2019-01-25T09:14:51.581Z,-3.79
2019-01-25T09:15:51.156Z,-3.79
2019-01-25T09:16:51.345Z,-3.77
2019-01-25T09:17:51.389Z,-3.73
2019-01-25T09:18:51.255Z,-3.76
2019-01-25T09:19:51.829Z,-3.76
2019-01-25T09:20:51.265Z,-3.8
2019-01-25T09:21:51.263Z,-3.73
2019-01-25T09:22:51.202Z,-3.72
2019-01-25T09:23:51.584Z,-3.73
2019-01-25T09:24:51.190Z,-3.71
2019-01-25T09:25:52.545Z,-3.72
2019-01-25T09:26:51.151Z,-3.65
2019-01-25T09:27:51.314Z,-3.69
2019-01-25T09:28:51.473Z,-3.71
2019-01-25T09:29:51.203Z,-3.69
2019-01-25T09:30:51.301Z,-3.68
2019-01-25T09:31:51.116Z,-3.74
2019-01-25T09:32:51.122Z,-3.69
2019-01-25T09:33:51.118Z,-3.68
2019-01-25T09:34:51.212Z,-3.61
2019-01-25T09:35:51.191Z,-3.62
2019-01-25T09:36:51.633Z,-3.6
2019-01-25T09:37:51.273Z,-3.51
2019-01-25T09:38:51.155Z,-3.52
2019-01-25T09:39:51.295Z,-3.53
2019-01-25T09:40:52.897Z,-3.54
2019-01-25T09:41:50.890Z,-3.55
2019-01-25T09:42:51.107Z,-3.59
2019-01-25T09:43:51.109Z,-3.58
2019-01-25T09:44:51.180Z,-3.54
2019-01-25T09:45:51.614Z,-3.49
2019-01-25T09:46:51.540Z,-3.45
2019-01-25T09:47:51.381Z,-3.44
2019-01-25T09:48:51.236Z,-3.46
2019-01-25T09:49:51.141Z,-3.45
2019-01-25T09:50:53.212Z,-3.48
2019-01-25T09:51:51.508Z,-3.48
2019-01-25T09:52:51.430Z,-3.53
2019-01-25T09:53:52.650Z,-3.48
2019-01-25T09:54:51.527Z,-3.51
2019-01-25T09:55:51.325Z,-3.51
2019-01-25T09:56:51.016Z,-3.35
2019-01-25T09:57:51.102Z,-3.37
2019-01-25T09:58:51.127Z,-3.46
2019-01-25T09:59:51.413Z,-3.44
2019-01-25T10:00:51.106Z,-3.44
2019-01-25T10:01:51.653Z,-3.4
2019-01-25T10:02:51.407Z,-3.33
2019-01-25T10:03:51.040Z,-3.38
2019-01-25T10:04:51.150Z,-3.33
2019-01-25T10:05:51.313Z,-3.3
2019-01-25T10:06:51.354Z,-3.32
2019-01-25T10:07:51.523Z,-3.33
2019-01-25T10:08:51.463Z,-3.26
2019-01-25T10:09:51.409Z,-3.28
2019-01-25T10:10:51.030Z,-3.26
2019-01-25T10:11:51.334Z,-3.34
2019-01-25T10:12:51.005Z,-3.31
2019-01-25T10:13:51.049Z,-3.29
2019-01-25T10:14:51.191Z,-3.24
2019-01-25T10:15:51.067Z,-3.37
2019-01-25T10:16:51.699Z,-3.34
2019-01-25T10:17:51.215Z,-3.31
2019-01-25T10:18:51.094Z,-3.26
2019-01-25T10:19:51.176Z,-3.31
2019-01-25T10:20:51.074Z,-3.31
2019-01-25T10:21:50.962Z,-3.31
2019-01-25T10:22:51.024Z,-3.27
2019-01-25T10:23:51.133Z,-3.3
2019-01-25T10:24:51.034Z,-3.27
2019-01-25T10:25:51.229Z,-3.23
2019-01-25T10:26:51.775Z,-3.17
2019-01-25T10:27:51.805Z,-3.15
2019-01-25T10:28:51.468Z,-3.22
2019-01-25T10:29:51.660Z,-3.22
2019-01-25T10:30:51.081Z,-3.24
2019-01-25T10:31:51.148Z,-3.25
2019-01-25T10:32:51.373Z,-3.21
2019-01-25T10:33:52.861Z,-3.18
2019-01-25T10:34:52.795Z,-3.21
2019-01-25T10:35:51.276Z,-3.15
2019-01-25T10:36:51.453Z,-3.15
2019-01-25T10:37:51.265Z,-3.19
2019-01-25T10:38:51.238Z,-3.17
2019-01-25T10:39:51.429Z,-3.2
2019-01-25T10:40:51.209Z,-3.24
2019-01-25T10:41:51.110Z,-3.22
2019-01-25T10:42:54.019Z,-3.26
2019-01-25T10:43:51.086Z,-3.23
2019-01-25T10:44:51.483Z,-3.18
2019-01-25T10:45:51.080Z,-3.19
2019-01-25T10:46:52.595Z,-3.2
2019-01-25T10:47:51.379Z,-3.13
2019-01-25T10:48:51.386Z,-3.14
2019-01-25T10:49:51.273Z,-3.15
2019-01-25T10:50:52.830Z,-3.12
2019-01-25T10:52:51.214Z,-3.06
2019-01-25T10:53:51.076Z,-3
2019-01-25T10:54:51.400Z,-3.05
2019-01-25T10:55:51.057Z,-3.01
2019-01-25T10:56:51.445Z,-3.01
2019-01-25T10:57:51.410Z,-3
2019-01-25T10:58:50.981Z,-2.99
2019-01-25T10:59:51.145Z,-2.98
2019-01-25T11:00:51.710Z,-2.96
2019-01-25T11:01:51.227Z,-2.95
2019-01-25T11:02:58.805Z,-3
2019-01-25T11:03:51.124Z,-2.93
2019-01-25T11:04:51.201Z,-2.86
2019-01-25T11:05:51.012Z,-2.87
2019-01-25T11:06:51.318Z,-2.89
2019-01-25T11:07:51.224Z,-2.89
2019-01-25T11:08:50.987Z,-2.92
2019-01-25T11:09:50.950Z,-2.94
2019-01-25T11:10:51.244Z,-2.89
2019-01-25T11:11:51.611Z,-2.91
2019-01-25T11:12:51.034Z,-2.93
2019-01-25T11:13:51.179Z,-2.94
2019-01-25T11:14:51.069Z,-2.87
2019-01-25T11:15:51.204Z,-2.86
2019-01-25T11:16:51.068Z,-2.91
2019-01-25T11:17:51.115Z,-2.95
2019-01-25T11:18:51.143Z,-2.91
2019-01-25T11:19:51.112Z,-2.88
2019-01-25T11:20:51.076Z,-2.93
2019-01-25T11:21:51.347Z,-2.98
2019-01-25T11:22:51.112Z,-2.99
2019-01-25T11:23:51.660Z,-2.97
2019-01-25T11:24:51.214Z,-2.95
2019-01-25T11:25:50.931Z,-2.95
2019-01-25T11:26:51.277Z,-2.96
2019-01-25T11:27:50.920Z,-2.94
2019-01-25T11:28:51.190Z,-3
2019-01-25T11:29:51.780Z,-2.91
2019-01-25T11:30:51.148Z,-2.93
2019-01-25T11:31:51.093Z,-2.93
2019-01-25T11:32:51.031Z,-2.91
2019-01-25T11:33:51.068Z,-2.85
2019-01-25T11:34:50.927Z,-2.85
2019-01-25T11:35:51.193Z,-2.82
2019-01-25T11:36:51.025Z,-2.84
2019-01-25T11:37:51.216Z,-2.88
2019-01-25T11:38:51.070Z,-2.83
2019-01-25T11:39:51.044Z,-2.79
2019-01-25T11:40:50.937Z,-2.79
2019-01-25T11:41:51.463Z,-2.78
2019-01-25T11:42:51.099Z,-2.76
2019-01-25T11:43:51.594Z,-2.84
2019-01-25T11:44:51.145Z,-2.8
2019-01-25T11:45:54.632Z,-2.8
2019-01-25T11:46:51.028Z,-2.75
2019-01-25T11:47:50.883Z,-2.74
2019-01-25T11:48:51.110Z,-2.81
2019-01-25T11:49:51.361Z,-2.82
2019-01-25T11:50:51.120Z,-2.78
2019-01-25T11:51:51.170Z,-2.79
2019-01-25T11:52:50.884Z,-2.77
2019-01-25T11:53:51.481Z,-2.73
2019-01-25T11:54:50.989Z,-2.67
2019-01-25T11:55:51.086Z,-2.69
2019-01-25T11:56:50.870Z,-2.66
2019-01-25T11:57:50.879Z,-2.72
2019-01-25T11:58:50.419Z,-2.71
2019-01-25T11:59:51.221Z,-2.74
2019-01-25T12:00:51.022Z,-2.68
2019-01-25T12:02:51.347Z,-2.66
2019-01-25T12:03:51.338Z,-2.62
2019-01-25T12:04:51.055Z,-2.67
2019-01-25T12:05:51.142Z,-2.66
2019-01-25T12:06:50.857Z,-2.63
2019-01-25T12:07:51.168Z,-2.59
2019-01-25T12:08:51.061Z,-2.58
2019-01-25T12:09:51.192Z,-2.67
2019-01-25T12:10:50.956Z,-2.72
2019-01-25T12:11:50.842Z,-2.66
2019-01-25T12:12:51.012Z,-2.67
2019-01-25T12:13:51.221Z,-2.73
2019-01-25T12:14:51.238Z,-2.68
2019-01-25T12:15:51.633Z,-2.64
2019-01-25T12:16:50.945Z,-2.71
2019-01-25T12:17:50.877Z,-2.66
2019-01-25T12:18:51.165Z,-2.64
2019-01-25T12:19:51.229Z,-2.64
2019-01-25T12:20:51.476Z,-2.6
2019-01-25T12:21:51.392Z,-2.51
2019-01-25T12:22:52.624Z,-2.55
2019-01-25T12:23:51.156Z,-2.55
2019-01-25T12:24:51.771Z,-2.49
2019-01-25T12:25:51.190Z,-2.51
2019-01-25T12:26:50.927Z,-2.54
2019-01-25T12:27:51.102Z,-2.61
2019-01-25T12:28:51.092Z,-2.58
2019-01-25T12:29:50.997Z,-2.55
2019-01-25T12:30:51.666Z,-2.52
2019-01-25T12:31:51.257Z,-2.51
2019-01-25T12:32:51.225Z,-2.58
2019-01-25T12:33:50.936Z,-2.57
2019-01-25T12:34:50.893Z,-2.53
2019-01-25T12:35:50.914Z,-2.43
2019-01-25T12:36:50.860Z,-2.55
2019-01-25T12:37:51.269Z,-2.53
2019-01-25T12:38:51.306Z,-2.49
2019-01-25T12:39:50.860Z,-2.46
2019-01-25T12:40:50.820Z,-2.4
2019-01-25T12:41:51.050Z,-2.36
2019-01-25T12:42:51.213Z,-2.4
2019-01-25T12:43:50.802Z,-2.43
2019-01-25T12:44:51.254Z,-2.42
2019-01-25T12:45:50.819Z,-2.35
2019-01-25T12:46:50.803Z,-2.43
2019-01-25T12:47:50.810Z,-2.48
2019-01-25T12:48:50.792Z,-2.49
2019-01-25T12:49:50.796Z,-2.47
2019-01-25T12:50:50.788Z,-2.5
2019-01-25T12:51:50.749Z,-2.49
2019-01-25T12:52:52.068Z,-2.44
2019-01-25T12:53:51.104Z,-2.43
2019-01-25T12:54:50.932Z,-2.47
2019-01-25T12:55:50.905Z,-2.48
2019-01-25T12:56:50.786Z,-2.47
2019-01-25T12:57:50.800Z,-2.46